Time;durP1;ratioP1;P1;durP2;ratioP2;P2;SDS_P1;SDS_P2;PMS_P1;PMS_P2;Temp;Humidity;BMP_temperature;BMP_pressure;BME280_temperature;BME280_humidity;BME280_pressure;Samples;Min_cycle;Max_cycle;Signal;HPM_P1;HPM_P2
2023/02/14 00:01:24;;;;;;;24.48;17.92;;;9.30;99.90;;;;;;5077593;28;20232;-80
2023/02/14 00:03:51;;;;;;;26.80;16.20;;;9.30;99.90;;;;;;5086614;28;20311;-80
2023/02/14 00:06:18;;;;;;;23.85;17.10;;;9.30;99.90;;;;;;5073140;28;20238;-75
2023/02/14 00:08:45;;;;;;;22.25;16.50;;;9.30;99.90;;;;;;5091812;28;20231;-80
2023/02/14 00:11:14;;;;;;;25.30;16.85;;;9.30;99.90;;;;;;5080661;28;20247;-80
2023/02/14 00:15:20;;;;;;;25.27;17.48;;;9.30;99.90;;;;;;5087424;28;20277;-80
2023/02/14 00:16:30;;;;;;;26.92;17.98;;;9.30;99.90;;;;;;5076056;28;20223;-75
2023/02/14 00:19:03;;;;;;;24.13;17.42;;;9.30;99.90;;;;;;5087403;28;20675;-80
2023/02/14 00:21:30;;;;;;;28.58;18.88;;;9.30;99.90;;;;;;5085636;28;20247;-76
2023/02/14 00:23:57;;;;;;;23.40;16.98;;;9.30;99.90;;;;;;5092895;28;20719;-75
2023/02/14 00:26:24;;;;;;;23.58;17.08;;;9.30;99.90;;;;;;5089262;28;20230;-81
2023/02/14 00:28:51;;;;;;;24.02;16.70;;;9.30;99.90;;;;;;5091688;28;20235;-79
2023/02/14 00:31:18;;;;;;;27.48;18.60;;;9.30;99.90;;;;;;5088942;28;20665;-79
2023/02/14 00:33:46;;;;;;;23.83;15.23;;;9.30;99.90;;;;;;5089702;28;20227;-78
2023/02/14 00:36:14;;;;;;;26.90;17.38;;;9.30;99.90;;;;;;5075947;28;20223;-75
2023/02/14 00:38:41;;;;;;;27.25;17.75;;;9.30;99.90;;;;;;5083588;28;20292;-77
2023/02/14 00:41:08;;;;;;;27.65;19.02;;;9.30;99.90;;;;;;5070052;28;20232;-81
2023/02/14 00:43:36;;;;;;;23.95;16.38;;;9.30;99.90;;;;;;5080841;28;20235;-77
2023/02/14 00:48:45;;;;;;;22.38;16.00;;;9.20;99.90;;;;;;5075267;28;20574;-77
2023/02/14 00:51:17;;;;;;;29.35;17.65;;;9.30;99.90;;;;;;5082720;28;20220;-81
2023/02/14 00:53:46;;;;;;;24.38;16.33;;;9.30;99.90;;;;;;5091135;28;20299;-77
2023/02/14 00:56:13;;;;;;;21.98;15.38;;;9.20;99.90;;;;;;5087780;28;20244;-80
2023/02/14 00:58:41;;;;;;;28.75;18.02;;;9.30;99.90;;;;;;5088558;28;20242;-79
2023/02/14 01:01:08;;;;;;;22.08;15.82;;;9.30;99.90;;;;;;5093712;28;20228;-80
2023/02/14 01:03:36;;;;;;;28.63;17.95;;;9.30;99.90;;;;;;5092106;28;20614;-76
2023/02/14 01:06:03;;;;;;;23.75;17.00;;;9.30;99.90;;;;;;5083680;28;20301;-76
2023/02/14 01:08:35;;;;;;;27.63;18.20;;;9.20;99.90;;;;;;5087686;28;20219;-80
2023/02/14 01:11:08;;;;;;;26.70;19.10;;;9.20;99.90;;;;;;5090481;28;20288;-80
2023/02/14 01:13:35;;;;;;;25.95;16.85;;;9.20;99.90;;;;;;5078675;28;20325;-76
2023/02/14 01:16:06;;;;;;;23.67;15.88;;;9.20;99.90;;;;;;5079928;28;21599;-76
2023/02/14 01:18:34;;;;;;;21.40;15.60;;;9.20;99.90;;;;;;5082477;28;20239;-76
2023/02/14 01:21:17;;;;;;;23.98;15.90;;;9.20;99.90;;;;;;5084777;28;20224;-76
2023/02/14 01:23:48;;;;;;;29.95;19.42;;;9.10;99.90;;;;;;5081566;28;20238;-76
2023/02/14 01:26:16;;;;;;;25.98;17.17;;;9.10;99.90;;;;;;5079735;28;20336;-76
2023/02/14 01:28:44;;;;;;;24.73;17.38;;;9.10;99.90;;;;;;5085368;28;20357;-76
2023/02/14 01:31:14;;;;;;;23.80;16.10;;;9.10;99.90;;;;;;5084937;28;20272;-75
2023/02/14 01:33:46;;;;;;;24.65;15.38;;;9.10;99.90;;;;;;5084678;28;20223;-79
2023/02/14 01:36:23;;;;;;;26.58;18.15;;;9.10;99.90;;;;;;5090087;28;20230;-76
2023/02/14 01:38:54;;;;;;;23.83;16.50;;;9.10;99.90;;;;;;5082781;28;20255;-76
2023/02/14 01:41:22;;;;;;;24.52;16.50;;;9.10;99.90;;;;;;5089087;28;20261;-79
2023/02/14 01:43:52;;;;;;;29.95;17.10;;;9.10;99.90;;;;;;5089347;28;20314;-76
2023/02/14 01:46:19;;;;;;;24.27;17.15;;;9.10;99.90;;;;;;5091739;28;20219;-76
2023/02/14 01:48:47;;;;;;;21.88;14.98;;;9.10;99.90;;;;;;5091931;28;20623;-80
2023/02/14 01:51:16;;;;;;;28.40;19.10;;;9.10;99.90;;;;;;5092288;28;20709;-80
2023/02/14 01:53:44;;;;;;;24.77;16.48;;;9.00;99.90;;;;;;5093456;28;20219;-76
2023/02/14 01:56:18;;;;;;;26.05;16.55;;;9.00;99.90;;;;;;5092155;28;20296;-76
2023/02/14 01:58:50;;;;;;;23.45;16.05;;;9.00;99.90;;;;;;5093513;28;20685;-80
2023/02/14 02:01:19;;;;;;;28.23;17.75;;;9.00;99.90;;;;;;5091950;28;20223;-80
2023/02/14 02:03:50;;;;;;;26.17;17.65;;;9.00;99.90;;;;;;5093355;28;20231;-76
2023/02/14 02:06:25;;;;;;;24.25;16.30;;;9.00;99.90;;;;;;5091307;28;20310;-76
2023/02/14 02:08:59;;;;;;;21.67;16.60;;;9.00;99.90;;;;;;5091017;28;20261;-76
2023/02/14 02:11:28;;;;;;;23.95;16.55;;;9.00;99.90;;;;;;5092223;28;20675;-76
2023/02/14 02:13:57;;;;;;;23.17;16.23;;;9.00;99.90;;;;;;5088559;28;20337;-75
2023/02/14 02:17:01;;;;;;;23.15;15.20;;;9.00;99.90;;;;;;5091237;28;20621;-76
2023/02/14 02:20:01;;;;;;;24.10;17.40;;;9.10;99.90;;;;;;5071836;28;20228;-80
2023/02/14 02:23:03;;;;;;;21.65;17.20;;;9.00;99.90;;;;;;5046740;28;20216;-80
2023/02/14 02:25:48;;;;;;;23.63;15.95;;;9.00;99.90;;;;;;5072726;28;20579;-76
2023/02/14 02:28:50;;;;;;;23.98;15.75;;;9.00;99.90;;;;;;5072182;28;20232;-80
2023/02/14 02:31:39;;;;;;;24.40;16.23;;;9.00;99.90;;;;;;5056046;28;20223;-76
2023/02/14 02:34:36;;;;;;;23.00;16.20;;;9.10;99.90;;;;;;5072570;28;20574;-79
2023/02/14 02:37:21;;;;;;;27.73;17.77;;;9.10;99.90;;;;;;5072745;28;20258;-76
2023/02/14 02:40:02;;;;;;;25.05;16.98;;;9.10;99.90;;;;;;5071429;28;20293;-76
2023/02/14 02:42:36;;;;;;;24.10;16.70;;;9.00;99.90;;;;;;5074019;28;20215;-79
2023/02/14 02:45:12;;;;;;;25.58;17.35;;;9.00;99.90;;;;;;5081127;28;20285;-79
2023/02/14 02:47:44;;;;;;;22.92;17.08;;;9.00;99.90;;;;;;5081638;28;20254;-76
2023/02/14 02:53:17;;;;;;;23.48;16.65;;;9.00;99.90;;;;;;5072069;28;20231;-76
2023/02/14 02:58:37;;;;;;;25.45;17.88;;;9.00;99.90;;;;;;5072348;28;20226;-80
2023/02/14 03:01:10;;;;;;;28.63;18.40;;;9.00;99.90;;;;;;5072000;28;20239;-76
2023/02/14 03:06:24;;;;;;;25.17;16.55;;;9.00;99.90;;;;;;5072539;28;20227;-76
2023/02/14 03:08:52;;;;;;;25.90;18.80;;;9.00;99.90;;;;;;5071269;28;20256;-76
2023/02/14 03:11:19;;;;;;;27.17;17.15;;;9.00;99.90;;;;;;5072062;28;20227;-80
2023/02/14 03:14:01;;;;;;;24.52;17.50;;;9.00;99.90;;;;;;5071548;28;20297;-80
2023/02/14 03:16:35;;;;;;;25.42;17.27;;;9.00;99.90;;;;;;5072321;28;20224;-76
2023/02/14 03:19:14;;;;;;;26.25;18.33;;;9.00;99.90;;;;;;5075905;28;20216;-76
2023/02/14 03:21:50;;;;;;;28.00;19.55;;;9.00;99.90;;;;;;5075208;28;20535;-80
2023/02/14 03:24:25;;;;;;;23.40;17.45;;;9.00;99.90;;;;;;5075884;28;20273;-80
2023/02/14 03:27:02;;;;;;;28.58;20.20;;;9.00;99.90;;;;;;5075612;28;20224;-76
2023/02/14 03:29:37;;;;;;;25.83;16.85;;;9.00;99.90;;;;;;5075683;28;20289;-80
2023/02/14 03:32:10;;;;;;;24.35;18.13;;;9.00;99.90;;;;;;5075284;28;20224;-76
2023/02/14 03:34:45;;;;;;;23.67;17.23;;;9.00;99.90;;;;;;5075653;28;20242;-76
2023/02/14 03:37:17;;;;;;;25.88;16.60;;;9.00;99.90;;;;;;5075608;28;20222;-80
2023/02/14 03:39:52;;;;;;;28.88;18.15;;;9.00;99.90;;;;;;5076054;28;20572;-80
2023/02/14 03:42:23;;;;;;;27.77;20.05;;;9.00;99.90;;;;;;5075521;28;20224;-75
2023/02/14 03:44:54;;;;;;;28.52;18.92;;;9.00;99.90;;;;;;5075019;28;20316;-75
2023/02/14 03:47:24;;;;;;;27.60;18.95;;;9.00;99.90;;;;;;5074449;28;20223;-75
2023/02/14 03:49:55;;;;;;;22.13;16.80;;;9.00;99.90;;;;;;5074384;28;20691;-76
2023/02/14 03:52:24;;;;;;;26.20;17.48;;;9.00;99.90;;;;;;5074766;28;20236;-79
2023/02/14 03:54:54;;;;;;;25.77;18.50;;;9.00;99.90;;;;;;5075030;28;20691;-80
2023/02/14 03:57:28;;;;;;;27.02;19.25;;;9.00;99.90;;;;;;5074603;28;20242;-79
2023/02/14 03:59:58;;;;;;;25.15;18.20;;;9.00;99.90;;;;;;5075363;28;20535;-79
2023/02/14 04:02:31;;;;;;;29.95;19.73;;;9.00;99.90;;;;;;5074594;28;20227;-75
2023/02/14 04:05:00;;;;;;;25.23;16.80;;;9.00;99.90;;;;;;5074989;28;20232;-76
2023/02/14 04:07:28;;;;;;;22.13;16.38;;;9.00;99.90;;;;;;5074282;28;20231;-79
2023/02/14 04:09:56;;;;;;;22.50;17.13;;;9.00;99.90;;;;;;5074533;28;20618;-79
2023/02/14 04:12:23;;;;;;;26.98;19.05;;;9.00;99.90;;;;;;5074184;28;20228;-77
2023/02/14 04:14:50;;;;;;;28.23;17.90;;;9.00;99.90;;;;;;5074987;28;20259;-76
2023/02/14 04:20:13;;;;;;;27.60;19.42;;;9.10;99.90;;;;;;5011618;28;20522;-76
2023/02/14 04:22:41;;;;;;;30.05;18.92;;;9.10;99.90;;;;;;5059995;28;20244;-76
2023/02/14 04:25:10;;;;;;;25.70;17.20;;;9.10;99.90;;;;;;5073645;28;20234;-77
2023/02/14 04:27:37;;;;;;;26.85;19.63;;;9.10;99.90;;;;;;5073678;28;20217;-81
2023/02/14 04:30:05;;;;;;;25.88;17.60;;;9.10;99.90;;;;;;5074287;28;20224;-76
2023/02/14 04:32:32;;;;;;;29.98;19.42;;;9.10;99.90;;;;;;5073279;28;20216;-77
2023/02/14 04:34:59;;;;;;;24.25;17.52;;;9.10;99.90;;;;;;5074874;28;20219;-77
2023/02/14 04:37:29;;;;;;;28.05;19.30;;;9.10;99.90;;;;;;5074219;28;20223;-77
2023/02/14 04:39:56;;;;;;;26.50;18.65;;;9.10;99.90;;;;;;5074414;28;20220;-80
2023/02/14 04:42:25;;;;;;;25.67;17.60;;;9.10;99.90;;;;;;5063743;28;20281;-80
2023/02/14 04:44:51;;;;;;;27.40;19.30;;;9.10;99.90;;;;;;5074966;28;20551;-76
2023/02/14 04:47:18;;;;;;;26.50;19.25;;;9.10;99.90;;;;;;5073997;28;20252;-80
2023/02/14 04:49:48;;;;;;;26.48;19.27;;;9.10;99.90;;;;;;5072945;28;20282;-76
2023/02/14 04:52:15;;;;;;;34.58;20.55;;;9.10;99.90;;;;;;5073907;28;20269;-80
2023/02/14 04:54:42;;;;;;;30.42;18.08;;;9.00;99.90;;;;;;5075117;28;20228;-80
2023/02/14 04:57:10;;;;;;;27.42;18.50;;;9.00;99.90;;;;;;5077648;28;20219;-80
2023/02/14 04:59:39;;;;;;;25.90;18.65;;;9.00;99.90;;;;;;5083658;28;20216;-80
2023/02/14 05:02:06;;;;;;;23.50;16.67;;;9.00;99.90;;;;;;5080238;28;20257;-80
2023/02/14 05:04:33;;;;;;;27.75;18.50;;;9.00;99.90;;;;;;5081745;28;20289;-80
2023/02/14 05:07:00;;;;;;;29.45;20.80;;;9.00;99.90;;;;;;5088457;28;20228;-81
2023/02/14 05:09:30;;;;;;;27.70;18.60;;;9.00;99.90;;;;;;5088785;28;20291;-79
2023/02/14 05:11:59;;;;;;;30.65;19.65;;;9.00;99.90;;;;;;5082684;28;20228;-77
2023/02/14 05:14:26;;;;;;;27.15;19.50;;;9.00;99.90;;;;;;5079557;28;20223;-81
2023/02/14 05:16:57;;;;;;;28.05;20.88;;;9.00;99.90;;;;;;5076406;28;20236;-76
2023/02/14 05:19:26;;;;;;;27.70;20.98;;;9.00;99.90;;;;;;5073514;28;20220;-77
2023/02/14 05:21:53;;;;;;;25.27;18.77;;;9.00;99.90;;;;;;5075007;28;20224;-77
2023/02/14 05:24:20;;;;;;;31.00;22.60;;;9.00;99.90;;;;;;5072772;28;20239;-76
2023/02/14 05:26:47;;;;;;;32.08;22.48;;;9.00;99.90;;;;;;5073744;28;20285;-77
2023/02/14 05:29:14;;;;;;;26.20;19.25;;;9.00;99.90;;;;;;5073861;28;20224;-76
2023/02/14 05:31:46;;;;;;;30.00;20.85;;;8.90;99.90;;;;;;5072826;28;20219;-76
2023/02/14 05:34:14;;;;;;;25.63;19.35;;;8.90;99.90;;;;;;5073419;28;20281;-77
2023/02/14 05:36:41;;;;;;;26.42;19.95;;;8.90;99.90;;;;;;5071427;28;20240;-76
2023/02/14 05:39:08;;;;;;;26.65;21.02;;;8.90;99.90;;;;;;5071957;28;20621;-77
2023/02/14 05:41:35;;;;;;;26.63;19.95;;;9.00;99.90;;;;;;5062186;28;20224;-77
2023/02/14 05:44:02;;;;;;;30.27;22.20;;;9.00;99.90;;;;;;5072261;28;20223;-76
2023/02/14 05:46:29;;;;;;;28.95;21.35;;;9.00;99.90;;;;;;5062313;28;20224;-80
2023/02/14 05:48:56;;;;;;;27.33;19.85;;;9.00;99.90;;;;;;5072225;28;20556;-76
2023/02/14 05:51:24;;;;;;;23.73;19.48;;;9.00;99.90;;;;;;5072390;28;20263;-76
2023/02/14 05:53:51;;;;;;;25.20;17.65;;;9.10;99.90;;;;;;5072855;28;20223;-80
2023/02/14 05:56:18;;;;;;;28.85;20.38;;;9.00;99.90;;;;;;5073469;28;20232;-77
2023/02/14 05:58:45;;;;;;;28.80;20.40;;;9.00;99.90;;;;;;5072883;28;20230;-77
2023/02/14 06:01:12;;;;;;;25.35;19.05;;;9.00;99.90;;;;;;5072822;28;20224;-77
2023/02/14 06:03:41;;;;;;;26.40;21.30;;;9.00;99.90;;;;;;5072363;28;20220;-80
2023/02/14 06:06:08;;;;;;;26.92;19.38;;;9.00;99.90;;;;;;5073237;28;20231;-80
2023/02/14 06:15:07;;;;;;;29.27;21.02;;;9.00;99.90;;;;;;4923717;28;20311;-76
2023/02/14 06:17:41;;;;;;;24.77;18.80;;;9.00;99.90;;;;;;5090777;28;20246;-80
2023/02/14 06:20:10;;;;;;;28.40;19.65;;;9.10;99.90;;;;;;5092922;28;20231;-76
2023/02/14 06:22:38;;;;;;;27.98;23.02;;;9.10;99.90;;;;;;5092817;28;20256;-76
2023/02/14 06:25:06;;;;;;;27.73;20.98;;;9.10;99.90;;;;;;5093024;28;20227;-80
2023/02/14 06:27:33;;;;;;;30.17;22.27;;;9.10;99.90;;;;;;5093072;28;20227;-80
2023/02/14 06:30:01;;;;;;;27.08;21.38;;;9.10;99.90;;;;;;5092663;28;20230;-80
2023/02/14 06:32:29;;;;;;;30.38;21.60;;;9.10;99.90;;;;;;5092729;28;20270;-80
2023/02/14 06:34:56;;;;;;;31.13;21.25;;;9.10;99.90;;;;;;5093207;28;20257;-80
2023/02/14 06:37:23;;;;;;;30.95;22.50;;;9.10;99.90;;;;;;5092450;28;20360;-76
2023/02/14 06:39:50;;;;;;;26.58;19.15;;;9.10;99.90;;;;;;5092653;28;20239;-77
2023/02/14 06:42:17;;;;;;;28.98;20.85;;;9.10;99.90;;;;;;5092649;28;20223;-76
2023/02/14 06:44:44;;;;;;;29.38;20.02;;;9.10;99.90;;;;;;5092762;28;20252;-80
2023/02/14 06:47:14;;;;;;;33.42;21.58;;;9.10;99.90;;;;;;5092957;28;20227;-80
2023/02/14 06:49:42;;;;;;;34.15;21.40;;;9.10;99.90;;;;;;5082660;28;20669;-80
2023/02/14 06:52:10;;;;;;;28.85;20.88;;;9.10;99.90;;;;;;5096279;28;20219;-76
2023/02/14 06:54:38;;;;;;;28.60;19.98;;;9.10;99.90;;;;;;5096590;28;20230;-80
2023/02/14 06:57:06;;;;;;;28.55;21.40;;;9.10;99.90;;;;;;5095252;28;20219;-77
2023/02/14 06:59:33;;;;;;;28.05;20.00;;;9.10;99.90;;;;;;5085964;28;20276;-81
2023/02/14 07:02:03;;;;;;;29.48;20.50;;;9.10;99.90;;;;;;5096117;28;20227;-81
2023/02/14 07:04:32;;;;;;;29.55;21.35;;;9.10;99.90;;;;;;5095151;28;20302;-80
2023/02/14 07:07:01;;;;;;;25.88;19.13;;;9.10;99.90;;;;;;5096545;28;20220;-80
2023/02/14 07:09:31;;;;;;;29.83;20.15;;;9.10;99.90;;;;;;5094906;28;20222;-80
2023/02/14 07:11:57;;;;;;;28.83;20.95;;;9.10;99.90;;;;;;5096781;28;20307;-77
2023/02/14 07:14:25;;;;;;;29.42;20.55;;;9.10;99.90;;;;;;5096131;28;20251;-76
2023/02/14 07:16:51;;;;;;;25.50;19.20;;;9.10;99.90;;;;;;5096017;28;20215;-77
2023/02/14 07:19:19;;;;;;;34.45;22.10;;;9.10;99.90;;;;;;5086018;28;20277;-81
2023/02/14 07:21:46;;;;;;;26.92;19.40;;;9.10;99.90;;;;;;5095656;28;20305;-81
2023/02/14 07:24:14;;;;;;;30.00;20.95;;;9.10;99.90;;;;;;5096492;28;20243;-81
2023/02/14 07:26:41;;;;;;;25.88;18.35;;;9.10;99.90;;;;;;5095736;28;20235;-81
2023/02/14 07:29:08;;;;;;;26.88;19.80;;;9.10;99.90;;;;;;5095582;28;20684;-81
2023/02/14 07:31:44;;;;;;;29.38;20.13;;;9.10;99.90;;;;;;5095175;28;20227;-80
2023/02/14 07:34:11;;;;;;;33.08;24.25;;;9.00;99.90;;;;;;5095950;28;20218;-81
2023/02/14 07:36:38;;;;;;;31.60;20.05;;;9.00;99.90;;;;;;5095984;28;20227;-77
2023/02/14 07:39:05;;;;;;;31.73;19.95;;;9.00;99.90;;;;;;5096239;28;20558;-81
2023/02/14 07:41:36;;;;;;;25.35;18.35;;;9.00;99.90;;;;;;5095284;28;20306;-77
2023/02/14 07:44:03;;;;;;;27.98;19.80;;;9.00;99.90;;;;;;5095644;28;21038;-77
2023/02/14 07:46:30;;;;;;;30.70;21.05;;;9.10;99.90;;;;;;5095700;28;20219;-81
2023/02/14 07:48:57;;;;;;;32.08;20.77;;;9.00;99.90;;;;;;5095098;28;20719;-80
2023/02/14 07:51:24;;;;;;;27.92;19.10;;;9.00;99.90;;;;;;5096060;28;20223;-80
2023/02/14 07:53:52;;;;;;;27.90;19.00;;;9.00;99.90;;;;;;5095979;28;20249;-80
2023/02/14 07:56:19;;;;;;;28.98;20.70;;;9.10;99.90;;;;;;5095665;28;20219;-76
2023/02/14 07:58:48;;;;;;;28.27;19.85;;;9.00;99.90;;;;;;5095392;28;20223;-78
2023/02/14 08:01:15;;;;;;;28.42;20.08;;;9.00;99.90;;;;;;5095357;28;20231;-79
2023/02/14 08:03:48;;;;;;;29.98;20.88;;;9.00;99.90;;;;;;5094340;28;20219;-79
2023/02/14 08:06:15;;;;;;;28.25;18.13;;;9.00;99.90;;;;;;5095254;28;20285;-75
2023/02/14 08:08:42;;;;;;;26.45;17.80;;;9.00;99.90;;;;;;5094716;28;20223;-80
2023/02/14 08:11:09;;;;;;;25.27;17.73;;;9.10;99.90;;;;;;5094638;28;20235;-80
2023/02/14 08:13:35;;;;;;;27.42;18.88;;;9.10;99.90;;;;;;5095273;28;20219;-80
2023/02/14 08:16:08;;;;;;;28.57;20.90;;;9.00;99.90;;;;;;5094161;28;20530;-80
2023/02/14 08:18:37;;;;;;;32.45;20.88;;;9.00;99.90;;;;;;5095730;28;20537;-80
2023/02/14 08:21:04;;;;;;;25.95;19.30;;;9.00;99.90;;;;;;5094455;28;20292;-80
2023/02/14 08:23:32;;;;;;;31.33;21.08;;;9.10;99.90;;;;;;5095565;28;20273;-77
2023/02/14 08:25:59;;;;;;;29.08;19.08;;;9.10;99.90;;;;;;5095304;28;20660;-77
2023/02/14 08:28:28;;;;;;;27.50;18.15;;;9.10;99.90;;;;;;5095713;28;20604;-80
2023/02/14 08:30:55;;;;;;;28.73;21.20;;;9.10;99.90;;;;;;5094031;28;20227;-76
2023/02/14 08:33:23;;;;;;;32.17;20.90;;;9.10;99.90;;;;;;5095295;28;20230;-80
2023/02/14 08:35:51;;;;;;;26.85;19.00;;;9.10;99.90;;;;;;5094895;28;20227;-76
2023/02/14 08:38:19;;;;;;;29.55;20.90;;;9.10;99.90;;;;;;5095467;28;20230;-76
2023/02/14 08:40:49;;;;;;;30.50;20.65;;;9.10;99.90;;;;;;5094593;28;20708;-79
2023/02/14 08:43:18;;;;;;;32.78;22.20;;;9.10;99.90;;;;;;5095106;28;20319;-76
2023/02/14 08:45:45;;;;;;;29.33;20.08;;;9.10;99.90;;;;;;5095026;28;20223;-76
2023/02/14 08:48:13;;;;;;;28.58;21.05;;;9.10;99.90;;;;;;5095422;28;20215;-80
2023/02/14 08:50:42;;;;;;;26.27;18.77;;;9.10;99.90;;;;;;5095172;28;20242;-80
2023/02/14 08:53:11;;;;;;;27.65;18.63;;;9.10;99.90;;;;;;5094433;28;20219;-80
2023/02/14 08:55:39;;;;;;;27.15;20.20;;;9.10;99.90;;;;;;5095181;28;20238;-76
2023/02/14 08:58:07;;;;;;;34.80;21.88;;;9.10;99.90;;;;;;5095118;28;20295;-80
2023/02/14 09:00:37;;;;;;;30.42;21.95;;;9.20;99.90;;;;;;5094892;28;20330;-80
2023/02/14 09:03:04;;;;;;;31.45;21.23;;;9.20;99.90;;;;;;5093881;28;20223;-80
2023/02/14 09:05:31;;;;;;;31.58;22.20;;;9.20;99.90;;;;;;5092768;28;20228;-76
2023/02/14 09:08:01;;;;;;;25.92;19.80;;;9.30;99.90;;;;;;5094844;28;20296;-80
2023/02/14 09:10:28;;;;;;;30.75;20.92;;;9.30;99.90;;;;;;5094682;28;20675;-77
2023/02/14 09:12:55;;;;;;;34.15;20.35;;;9.30;99.90;;;;;;5095320;28;20216;-80
2023/02/14 09:15:23;;;;;;;34.30;21.42;;;9.20;99.90;;;;;;5095745;28;20738;-80
2023/02/14 09:17:51;;;;;;;29.08;20.52;;;9.20;99.90;;;;;;5094307;28;20223;-76
2023/02/14 09:20:18;;;;;;;33.50;23.30;;;9.20;99.90;;;;;;5093861;28;20258;-77
2023/02/14 09:22:45;;;;;;;29.83;22.08;;;9.20;99.90;;;;;;5093923;28;20306;-75
2023/02/14 09:25:14;;;;;;;31.08;22.10;;;9.30;99.90;;;;;;5094229;28;20570;-79
2023/02/14 09:27:44;;;;;;;28.95;20.95;;;9.30;99.90;;;;;;5095172;28;20748;-79
2023/02/14 09:30:12;;;;;;;30.73;21.20;;;9.30;99.90;;;;;;5094163;28;20289;-76
2023/02/14 09:32:46;;;;;;;30.70;21.08;;;9.40;99.90;;;;;;5095321;28;20232;-76
2023/02/14 09:35:13;;;;;;;31.67;23.15;;;9.40;99.90;;;;;;5095765;28;20215;-80
2023/02/14 09:40:26;;;;;;;29.95;20.88;;;9.40;99.90;;;;;;5096299;28;20668;-77
2023/02/14 09:43:15;;;;;;;30.92;23.15;;;9.30;99.90;;;;;;5095739;28;20223;-76
2023/02/14 09:45:47;;;;;;;36.88;23.92;;;9.30;99.90;;;;;;5100376;28;20253;-80
2023/02/14 09:48:24;;;;;;;31.77;23.80;;;9.40;99.90;;;;;;5109358;28;20226;-75
2023/02/14 09:50:56;;;;;;;37.38;22.05;;;9.40;99.90;;;;;;5101986;28;20231;-79
2023/02/14 09:53:29;;;;;;;29.80;21.52;;;9.40;99.90;;;;;;5095808;28;20238;-80
2023/02/14 09:56:04;;;;;;;31.83;21.27;;;9.40;99.90;;;;;;5093561;28;20234;-79
2023/02/14 09:58:38;;;;;;;27.95;20.70;;;9.40;99.90;;;;;;5094887;28;20219;-76
2023/02/14 10:01:13;;;;;;;33.53;22.40;;;9.50;99.90;;;;;;5093229;28;20222;-76
2023/02/14 10:04:03;;;;;;;31.13;21.45;;;9.50;99.90;;;;;;5094730;28;20226;-79
2023/02/14 10:06:41;;;;;;;32.78;22.65;;;9.50;99.90;;;;;;5093729;28;20211;-76
2023/02/14 10:09:19;;;;;;;36.60;23.30;;;9.50;99.90;;;;;;5093471;28;20234;-76
2023/02/14 10:11:49;;;;;;;29.98;21.23;;;9.50;99.90;;;;;;5092659;28;20241;-79
2023/02/14 10:14:23;;;;;;;30.98;21.77;;;9.50;99.90;;;;;;5094405;28;20254;-80
2023/02/14 10:16:54;;;;;;;29.35;21.45;;;9.50;99.90;;;;;;5092699;28;20215;-76
2023/02/14 10:19:25;;;;;;;35.58;24.55;;;9.50;99.90;;;;;;5092921;28;20281;-76
2023/02/14 10:21:55;;;;;;;31.75;19.92;;;9.50;99.90;;;;;;5093298;28;20621;-80
2023/02/14 10:24:27;;;;;;;29.60;20.92;;;9.60;99.90;;;;;;5093702;28;20648;-80
2023/02/14 10:27:02;;;;;;;33.05;23.65;;;9.60;99.90;;;;;;5092947;28;20215;-80
2023/02/14 10:29:29;;;;;;;33.33;20.67;;;9.60;99.90;;;;;;5093162;28;20230;-80
2023/02/14 10:31:59;;;;;;;30.48;22.40;;;9.60;99.90;;;;;;5093280;28;20621;-76
2023/02/14 10:34:35;;;;;;;30.02;21.05;;;9.60;99.90;;;;;;5092454;28;20556;-76
2023/02/14 10:37:22;;;;;;;35.88;26.05;;;9.70;99.90;;;;;;5093590;28;20620;-75
2023/02/14 10:40:23;;;;;;;33.47;23.08;;;9.70;99.90;;;;;;5093076;28;20270;-81
2023/02/14 10:43:01;;;;;;;31.60;22.80;;;9.70;99.90;;;;;;5092100;28;20225;-80
2023/02/14 10:45:39;;;;;;;30.85;22.65;;;9.70;99.90;;;;;;5093375;28;20650;-80
2023/02/14 10:48:19;;;;;;;31.67;22.42;;;9.70;99.90;;;;;;5092838;28;20215;-80
2023/02/14 10:50:54;;;;;;;33.15;24.05;;;9.70;99.90;;;;;;5092295;28;20227;-76
2023/02/14 10:53:29;;;;;;;31.80;24.00;;;9.70;99.90;;;;;;5093506;28;20636;-76
2023/02/14 10:56:01;;;;;;;33.08;21.65;;;9.60;99.90;;;;;;5092480;28;20257;-76
2023/02/14 10:58:33;;;;;;;28.63;21.70;;;9.60;99.90;;;;;;5092667;28;20227;-76
2023/02/14 11:01:03;;;;;;;31.08;21.08;;;9.60;99.90;;;;;;5092365;28;20246;-76
2023/02/14 11:03:30;;;;;;;29.92;19.38;;;9.70;99.90;;;;;;5092776;28;20226;-76
2023/02/14 11:05:59;;;;;;;36.90;24.48;;;9.70;99.90;;;;;;5092449;28;20224;-76
2023/02/14 11:08:32;;;;;;;33.40;22.60;;;9.70;99.90;;;;;;5092840;28;20619;-76
2023/02/14 11:11:04;;;;;;;29.63;20.88;;;9.70;99.90;;;;;;5092456;28;20288;-76
2023/02/14 11:13:35;;;;;;;30.77;23.05;;;9.80;99.90;;;;;;5092990;28;20269;-80
2023/02/14 11:16:07;;;;;;;32.67;21.40;;;9.80;99.90;;;;;;5091944;28;20495;-76
2023/02/14 11:18:38;;;;;;;28.30;19.80;;;9.80;99.90;;;;;;5094345;28;20665;-76
2023/02/14 11:21:08;;;;;;;27.48;19.92;;;9.80;99.90;;;;;;5098756;28;20623;-80
2023/02/14 11:23:39;;;;;;;26.65;18.83;;;9.80;99.90;;;;;;5094104;28;20282;-76
2023/02/14 11:26:23;;;;;;;28.58;20.70;;;9.90;99.90;;;;;;5084148;28;20238;-75
2023/02/14 11:28:55;;;;;;;30.40;21.20;;;9.80;99.90;;;;;;5089623;28;20238;-76
2023/02/14 11:31:31;;;;;;;29.05;21.70;;;9.80;99.90;;;;;;5092498;28;20288;-76
2023/02/14 11:33:59;;;;;;;26.30;21.00;;;9.80;99.90;;;;;;5092942;28;20223;-74
2023/02/14 11:36:27;;;;;;;27.85;20.77;;;9.80;99.90;;;;;;5094052;28;20559;-75
2023/02/14 11:39:06;;;;;;;27.60;20.38;;;9.80;99.90;;;;;;5094193;28;20223;-76
2023/02/14 11:41:50;;;;;;;31.00;20.65;;;9.80;99.90;;;;;;5095832;28;20745;-76
2023/02/14 11:44:24;;;;;;;26.00;19.00;;;9.80;99.90;;;;;;5096535;28;20215;-80
2023/02/14 11:46:52;;;;;;;28.63;21.80;;;9.80;99.90;;;;;;5096539;28;20219;-76
2023/02/14 11:49:31;;;;;;;30.10;22.38;;;9.80;99.90;;;;;;5095612;28;20718;-76
2023/02/14 11:52:00;;;;;;;29.35;21.27;;;9.80;99.90;;;;;;5095431;28;20227;-77
2023/02/14 11:54:36;;;;;;;24.42;18.92;;;9.80;99.90;;;;;;5097018;28;20555;-80
2023/02/14 11:57:06;;;;;;;24.27;18.20;;;9.80;99.90;;;;;;5096490;28;20226;-80
2023/02/14 11:59:38;;;;;;;25.77;19.20;;;9.90;99.90;;;;;;5097080;28;20223;-76
2023/02/14 12:02:20;;;;;;;25.63;18.70;;;9.90;99.90;;;;;;5095079;28;20558;-76
2023/02/14 12:04:50;;;;;;;31.42;20.90;;;10.00;99.90;;;;;;5098325;28;20410;-80
2023/02/14 12:07:21;;;;;;;27.17;19.77;;;10.00;99.90;;;;;;5099858;28;20310;-76
2023/02/14 12:10:04;;;;;;;26.65;19.67;;;10.00;99.90;;;;;;5095795;28;20253;-76
2023/02/14 12:12:32;;;;;;;25.33;18.60;;;10.00;99.90;;;;;;5095972;28;20223;-76
2023/02/14 12:15:22;;;;;;;32.22;22.95;;;10.00;99.90;;;;;;5096315;28;20245;-76
2023/02/14 12:17:54;;;;;;;29.17;20.48;;;10.10;99.90;;;;;;5096488;28;20611;-76
2023/02/14 12:20:31;;;;;;;25.33;18.98;;;10.10;99.90;;;;;;5096510;28;20238;-77
2023/02/14 12:23:02;;;;;;;25.27;19.10;;;10.10;99.90;;;;;;5095512;28;20235;-76
2023/02/14 12:25:39;;;;;;;26.92;19.33;;;10.10;99.90;;;;;;5097113;28;20223;-77
2023/02/14 12:28:12;;;;;;;22.92;17.45;;;10.10;99.90;;;;;;5093920;28;20223;-77
2023/02/14 12:30:41;;;;;;;33.80;22.13;;;10.10;99.90;;;;;;5094348;28;20245;-76
2023/02/14 12:33:23;;;;;;;26.10;19.60;;;10.10;99.90;;;;;;5095726;28;20567;-77
2023/02/14 12:36:23;;;;;;;25.52;20.20;;;10.10;99.90;;;;;;5086397;28;20227;-77
2023/02/14 12:39:01;;;;;;;22.80;17.90;;;10.10;99.90;;;;;;5102852;28;20227;-75
2023/02/14 12:41:41;;;;;;;25.70;20.20;;;10.10;99.90;;;;;;5097510;28;20226;-77
2023/02/14 12:44:15;;;;;;;24.13;18.27;;;10.10;99.90;;;;;;5104072;28;20223;-80
2023/02/14 12:47:22;;;;;;;26.23;18.92;;;10.10;99.90;;;;;;5100966;28;20233;-76
2023/02/14 12:50:13;;;;;;;28.40;20.15;;;10.10;99.90;;;;;;5077378;28;20227;-77
2023/02/14 12:53:04;;;;;;;25.58;19.60;;;10.10;99.90;;;;;;5096722;28;20234;-77
2023/02/14 12:55:41;;;;;;;20.02;17.65;;;10.10;99.90;;;;;;5085302;28;20316;-77
2023/02/14 12:58:18;;;;;;;22.45;17.95;;;10.10;99.90;;;;;;5100591;28;20223;-76
2023/02/14 13:00:59;;;;;;;25.63;19.10;;;10.10;99.90;;;;;;5097912;28;20284;-77
2023/02/14 13:04:20;;;;;;;21.23;17.35;;;10.10;99.90;;;;;;5095267;28;20250;-76
2023/02/14 13:06:54;;;;;;;27.70;18.45;;;10.10;99.90;;;;;;5049947;28;21003;-81
2023/02/14 13:09:35;;;;;;;22.00;19.30;;;10.10;99.90;;;;;;5085893;28;20220;-77
2023/02/14 13:12:14;;;;;;;27.80;18.58;;;10.10;99.90;;;;;;5094865;28;20302;-77
2023/02/14 13:14:52;;;;;;;28.02;18.98;;;10.00;99.90;;;;;;5093984;28;20238;-77
2023/02/14 13:17:33;;;;;;;25.58;17.83;;;10.00;99.90;;;;;;5095525;28;20227;-80
2023/02/14 13:20:20;;;;;;;27.83;18.02;;;10.00;99.90;;;;;;5095347;28;20280;-80
2023/02/14 13:22:49;;;;;;;26.48;20.60;;;10.00;99.90;;;;;;5091958;28;20302;-79